Maersk Essen — V7UQ8 — position and weather

sailwx.info

Track history (hours):
 
Tides and Currents Weather Stations Pressure Air Temp Water Temp Dewpoint Dewpoint Depression Visibility Wind Speed Wind Dir Waves Ship Positions

Maersk Essen

Last reported at 2015-Feb-27 12:18 UTC. Time now 2015-Mar-06 09:04 UTC.
Position N 02°09' E 102°03'.

Length 367 m; draft 14 m.

Type: Ship (hazmat cat A). MMSI: 538004007.

Date/timePositionNaut miles runAvg speedWind from/ knotsBaromVisibWave heightAir tempDewpointWater temp
2015-Feb-27 12:18N 02°09' E 102°03'1620.2
2015-Feb-27 11:32N 01°58' E 102°15'2019.9
2015-Feb-27 10:32N 01°48' E 102°32'2019.7
2015-Feb-27 09:31N 01°40' E 102°50'1919.5
2015-Feb-27 08:32N 01°29' E 103°05'44 1.4
2015-Feb-26 01:33N 01°09' E 103°45'1010.3
2015-Feb-26 00:33N 01°13' E 103°54'10 9.7
2015-Feb-25 23:32N 01°16' E 104°04'1411.9
2015-Feb-25 22:22N 01°18' E 104°18'  
2015-Feb-23 02:06N 22°10' E 114°29'1118.9
2015-Feb-23 01:32N 22°20' E 114°30'3 0.2
2015-Feb-22 07:24N 22°23' E 114°29'1315.8
2015-Feb-22 06:33N 22°10' E 114°25'1412.4
2015-Feb-22 05:24N 22°12' E 114°10'8 9.3
2015-Feb-22 04:33N 22°20' E 114°07'0 0.4
2015-Feb-22 03:33N 22°20' E 114°07'0 0.0
2015-Feb-22 02:33N 22°20' E 114°07'0 0.0
2015-Feb-22 01:33N 22°20' E 114°07'0 0.0
2015-Feb-22 00:30N 22°20' E 114°07'0 0.0
2015-Feb-21 23:30N 22°20' E 114°07'0 0.0
2015-Feb-21 22:33N 22°20' E 114°07'0 0.0
2015-Feb-21 21:33N 22°20' E 114°07'0 0.0
2015-Feb-21 20:33N 22°20' E 114°07'0 0.0
2015-Feb-21 19:33N 22°20' E 114°07'0 0.0
2015-Feb-21 18:30N 22°20' E 114°07'0 0.0
2015-Feb-21 17:30N 22°20' E 114°07'0 0.0
2015-Feb-21 16:33N 22°20' E 114°07'0 0.0
2015-Feb-21 15:33N 22°20' E 114°07'0 0.0
2015-Feb-21 14:33N 22°20' E 114°07'0 0.0
2015-Feb-21 13:33N 22°20' E 114°07'3 3.1
2015-Feb-21 12:33N 22°17' E 114°06'10 9.2
2015-Feb-21 11:30N 22°09' E 114°13'6 6.0
2015-Feb-21 10:33N 22°09' E 114°19'9 8.7
2015-Feb-21 09:33N 22°10' E 114°29'20418.4
2015-Feb-20 22:27N 23°21' E 117°56'1920.8
2015-Feb-20 21:33N 23°30' E 118°14'2121.2
2015-Feb-20 20:33N 23°42' E 118°33'2020.6
2015-Feb-20 19:33N 23°54' E 118°51'41118.4
2015-Feb-19 21:16N 29°41' E 122°57'1521.1
2015-Feb-19 20:33N 29°55' E 123°02'2219.7
2015-Feb-19 19:27N 30°17' E 122°59'2221.1
2015-Feb-19 18:26N 30°29' E 122°39'1617.8
2015-Feb-19 17:33N 30°32' E 122°21'1313.5
2015-Feb-19 16:33N 30°36' E 122°06'3 3.4
2015-Feb-19 15:33N 30°38' E 122°03'0 0.0
2015-Feb-19 14:27N 30°38' E 122°03'0 0.0
2015-Feb-19 13:33N 30°38' E 122°03'0 0.0
2015-Feb-19 12:33N 30°38' E 122°03'0 0.0
2015-Feb-19 11:33N 30°38' E 122°03'0 0.1
2015-Feb-19 10:33N 30°38' E 122°03'0 0.1
2015-Feb-19 09:33N 30°38' E 122°03'0 0.0
2015-Feb-19 08:33N 30°38' E 122°03'0 0.0
2015-Feb-19 07:33N 30°38' E 122°03'0 0.0
2015-Feb-19 06:33N 30°38' E 122°03'0 0.0
2015-Feb-19 05:33N 30°38' E 122°03'0 0.0
2015-Feb-19 04:33N 30°38' E 122°03'0 0.0
2015-Feb-19 03:30N 30°38' E 122°03'0 0.1
2015-Feb-19 02:33N 30°38' E 122°03'0 0.0
2015-Feb-19 01:33N 30°38' E 122°03'0 0.0
2015-Feb-19 00:33N 30°38' E 122°03'0 0.0
2015-Feb-18 23:33N 30°38' E 122°03'1 0.6
2015-Feb-18 22:33N 30°37' E 122°03'1111.3
2015-Feb-18 21:33N 30°33' E 122°16'10 9.6
2015-Feb-18 20:34N 30°32' E 122°27'1110.4
2015-Feb-18 19:32N 30°29' E 122°39'2 1.6
2015-Feb-18 18:04N 30°28' E 122°40'0 0.0
2015-Feb-18 17:31N 30°28' E 122°40'0 0.0
2015-Feb-18 16:25N 30°28' E 122°40'0 0.0
2015-Feb-18 08:04N 30°28' E 122°40'3 6.2
2015-Feb-18 07:32N 30°27' E 122°44'11 9.3
2015-Feb-18 06:22N 30°21' E 122°54'32 8.3
2015-Feb-18 02:30N 29°49' E 122°47'1112.1
2015-Feb-18 01:33N 29°43' E 122°36'1110.5
2015-Feb-18 00:33N 29°42' E 122°24'9 8.7
2015-Feb-17 23:33N 29°47' E 122°16'1111.3
2015-Feb-17 22:33N 29°55' E 122°07'4 4.2
2015-Feb-17 21:33N 29°54' E 122°02'0 0.0
2015-Feb-17 20:27N 29°54' E 122°02'0 0.0
2015-Feb-17 19:24N 29°54' E 122°02'0 0.0
2015-Feb-17 17:30N 29°54' E 122°02'0 0.0
2015-Feb-17 16:33N 29°54' E 122°02'0 0.0
2015-Feb-17 15:24N 29°54' E 122°02'0 0.0
2015-Feb-17 14:24N 29°54' E 122°02'0 0.0
2015-Feb-17 13:18N 29°54' E 122°02'0 0.0
2015-Feb-17 12:21N 29°54' E 122°02'  
Track history (hours):
 
Tides and Currents Weather Stations Pressure Air Temp Water Temp Dewpoint Dewpoint Depression Visibility Wind Speed Wind Dir Waves Ship Positions

Maersk Essen

Last reported at 2015-Feb-27 12:18 UTC. Time now 2015-Mar-06 09:04 UTC.
Position N 02°09' E 102°03'.

Length 367 m; draft 14 m.

Type: Ship (hazmat cat A). MMSI: 538004007.

Date/timePositionNaut miles runAvg speedWind from/ knotsBaromVisibWave heightAir tempDewpointWater temp
2015-Feb-27 12:18N 02°09' E 102°03'1620.2
2015-Feb-27 11:32N 01°58' E 102°15'2019.9
2015-Feb-27 10:32N 01°48' E 102°32'2019.7
2015-Feb-27 09:31N 01°40' E 102°50'1919.5
2015-Feb-27 08:32N 01°29' E 103°05'44 1.4
2015-Feb-26 01:33N 01°09' E 103°45'1010.3
2015-Feb-26 00:33N 01°13' E 103°54'10 9.7
2015-Feb-25 23:32N 01°16' E 104°04'1411.9
2015-Feb-25 22:22N 01°18' E 104°18'  
2015-Feb-23 02:06N 22°10' E 114°29'1118.9
2015-Feb-23 01:32N 22°20' E 114°30'3 0.2
2015-Feb-22 07:24N 22°23' E 114°29'1315.8
2015-Feb-22 06:33N 22°10' E 114°25'1412.4
2015-Feb-22 05:24N 22°12' E 114°10'8 9.3
2015-Feb-22 04:33N 22°20' E 114°07'0 0.4
2015-Feb-22 03:33N 22°20' E 114°07'0 0.0
2015-Feb-22 02:33N 22°20' E 114°07'0 0.0
2015-Feb-22 01:33N 22°20' E 114°07'0 0.0
2015-Feb-22 00:30N 22°20' E 114°07'0 0.0
2015-Feb-21 23:30N 22°20' E 114°07'0 0.0
2015-Feb-21 22:33N 22°20' E 114°07'0 0.0
2015-Feb-21 21:33N 22°20' E 114°07'0 0.0
2015-Feb-21 20:33N 22°20' E 114°07'0 0.0
2015-Feb-21 19:33N 22°20' E 114°07'0 0.0
2015-Feb-21 18:30N 22°20' E 114°07'0 0.0
2015-Feb-21 17:30N 22°20' E 114°07'0 0.0
2015-Feb-21 16:33N 22°20' E 114°07'0 0.0
2015-Feb-21 15:33N 22°20' E 114°07'0 0.0
2015-Feb-21 14:33N 22°20' E 114°07'0 0.0
2015-Feb-21 13:33N 22°20' E 114°07'3 3.1
2015-Feb-21 12:33N 22°17' E 114°06'10 9.2
2015-Feb-21 11:30N 22°09' E 114°13'6 6.0
2015-Feb-21 10:33N 22°09' E 114°19'9 8.7
2015-Feb-21 09:33N 22°10' E 114°29'20418.4
2015-Feb-20 22:27N 23°21' E 117°56'1920.8
2015-Feb-20 21:33N 23°30' E 118°14'2121.2
2015-Feb-20 20:33N 23°42' E 118°33'2020.6
2015-Feb-20 19:33N 23°54' E 118°51'41118.4
2015-Feb-19 21:16N 29°41' E 122°57'1521.1
2015-Feb-19 20:33N 29°55' E 123°02'2219.7
2015-Feb-19 19:27N 30°17' E 122°59'2221.1
2015-Feb-19 18:26N 30°29' E 122°39'1617.8
2015-Feb-19 17:33N 30°32' E 122°21'1313.5
2015-Feb-19 16:33N 30°36' E 122°06'3 3.4
2015-Feb-19 15:33N 30°38' E 122°03'0 0.0
2015-Feb-19 14:27N 30°38' E 122°03'0 0.0
2015-Feb-19 13:33N 30°38' E 122°03'0 0.0
2015-Feb-19 12:33N 30°38' E 122°03'0 0.0
2015-Feb-19 11:33N 30°38' E 122°03'0 0.1
2015-Feb-19 10:33N 30°38' E 122°03'0 0.1
2015-Feb-19 09:33N 30°38' E 122°03'0 0.0
2015-Feb-19 08:33N 30°38' E 122°03'0 0.0
2015-Feb-19 07:33N 30°38' E 122°03'0 0.0
2015-Feb-19 06:33N 30°38' E 122°03'0 0.0
2015-Feb-19 05:33N 30°38' E 122°03'0 0.0
2015-Feb-19 04:33N 30°38' E 122°03'0 0.0
2015-Feb-19 03:30N 30°38' E 122°03'0 0.1
2015-Feb-19 02:33N 30°38' E 122°03'0 0.0
2015-Feb-19 01:33N 30°38' E 122°03'0 0.0
2015-Feb-19 00:33N 30°38' E 122°03'0 0.0
2015-Feb-18 23:33N 30°38' E 122°03'1 0.6
2015-Feb-18 22:33N 30°37' E 122°03'1111.3
2015-Feb-18 21:33N 30°33' E 122°16'10 9.6
2015-Feb-18 20:34N 30°32' E 122°27'1110.4
2015-Feb-18 19:32N 30°29' E 122°39'2 1.6
2015-Feb-18 18:04N 30°28' E 122°40'0 0.0
2015-Feb-18 17:31N 30°28' E 122°40'0 0.0
2015-Feb-18 16:25N 30°28' E 122°40'0 0.0
2015-Feb-18 08:04N 30°28' E 122°40'3 6.2
2015-Feb-18 07:32N 30°27' E 122°44'11 9.3
2015-Feb-18 06:22N 30°21' E 122°54'32 8.3
2015-Feb-18 02:30N 29°49' E 122°47'1112.1
2015-Feb-18 01:33N 29°43' E 122°36'1110.5
2015-Feb-18 00:33N 29°42' E 122°24'9 8.7
2015-Feb-17 23:33N 29°47' E 122°16'1111.3
2015-Feb-17 22:33N 29°55' E 122°07'4 4.2
2015-Feb-17 21:33N 29°54' E 122°02'0 0.0
2015-Feb-17 20:27N 29°54' E 122°02'0 0.0
2015-Feb-17 19:24N 29°54' E 122°02'0 0.0
2015-Feb-17 17:30N 29°54' E 122°02'0 0.0
2015-Feb-17 16:33N 29°54' E 122°02'0 0.0
2015-Feb-17 15:24N 29°54' E 122°02'0 0.0
2015-Feb-17 14:24N 29°54' E 122°02'0 0.0
2015-Feb-17 13:18N 29°54' E 122°02'0 0.0
2015-Feb-17 12:21N 29°54' E 122°02'  

Dump ship's entire track history